Time;durP1;ratioP1;P1;durP2;ratioP2;P2;SDS_P1;SDS_P2;PMS_P1;PMS_P2;Temp;Humidity;BMP_temperature;BMP_pressure;BME280_temperature;BME280_humidity;BME280_pressure;Samples;Min_cycle;Max_cycle;Signal;HPM_P1;HPM_P2
2021/11/30 00:01:48;;;;;;;7.75;4.62;;;;;;;6.34;54.19;98117.73;1788510;79;20169;-69
2021/11/30 00:04:17;;;;;;;6.00;4.25;;;;;;;6.34;54.39;98127.02;1785865;78;21065;-69
2021/11/30 00:06:46;;;;;;;6.03;4.05;;;;;;;6.32;54.08;98111.95;1782975;78;22204;-69
2021/11/30 00:11:52;;;;;;;6.45;4.20;;;;;;;6.36;54.03;98122.77;1744365;78;21093;-70
2021/11/30 00:14:19;;;;;;;7.60;4.40;;;;;;;6.40;53.65;98124.53;1785445;78;21185;-69
2021/11/30 00:16:47;;;;;;;6.97;3.92;;;;;;;6.41;53.61;98133.27;1786142;78;21081;-69
2021/11/30 00:19:14;;;;;;;6.05;4.08;;;;;;;6.38;53.49;98131.20;1796401;78;21746;-69
2021/11/30 00:21:41;;;;;;;6.92;4.25;;;;;;;6.44;53.50;98120.77;1784023;78;21058;-70
2021/11/30 00:24:08;;;;;;;6.47;4.08;;;;;;;6.45;53.68;98134.27;1779828;79;21034;-70
2021/11/30 00:26:35;;;;;;;7.50;4.40;;;;;;;6.48;53.64;98142.97;1769983;79;21077;-70
2021/11/30 00:29:03;;;;;;;6.87;4.08;;;;;;;6.45;53.52;98145.69;1783268;79;21038;-71
2021/11/30 00:31:31;;;;;;;6.58;4.15;;;;;;;6.48;53.60;98148.27;1793669;78;21313;-71
2021/11/30 00:33:58;;;;;;;5.95;4.05;;;;;;;6.47;53.59;98137.42;1808688;78;21050;-71
2021/11/30 00:36:25;;;;;;;5.33;3.50;;;;;;;6.50;53.73;98166.02;1811955;78;21541;-71
2021/11/30 00:38:52;;;;;;;6.45;4.00;;;;;;;6.50;53.66;98157.52;1815051;78;21042;-70
2021/11/30 00:41:18;;;;;;;6.70;3.45;;;;;;;6.52;53.77;98159.36;1776573;79;21649;-70
2021/11/30 00:43:45;;;;;;;5.50;3.85;;;;;;;6.52;53.53;98163.34;1788192;78;21119;-70
2021/11/30 00:46:16;;;;;;;5.22;3.65;;;;;;;6.53;53.57;98136.27;1816255;78;21040;-70
2021/11/30 00:48:41;;;;;;;4.92;3.22;;;;;;;6.51;53.60;98181.63;1785649;78;21105;-70
2021/11/30 00:51:12;;;;;;;5.25;3.83;;;;;;;6.55;53.71;98164.63;1805804;78;21042;-70
2021/11/30 00:53:40;;;;;;;5.70;3.30;;;;;;;6.61;53.65;98167.42;1819527;78;21660;-71
2021/11/30 00:56:07;;;;;;;5.83;4.12;;;;;;;6.64;53.63;98168.17;1829788;77;21072;-71
2021/11/30 00:58:34;;;;;;;5.95;4.00;;;;;;;6.67;53.81;98180.86;1777408;79;21685;-70
2021/11/30 01:01:00;;;;;;;6.67;4.12;;;;;;;6.67;54.09;98181.41;1780907;80;21070;-74
2021/11/30 01:03:27;;;;;;;6.67;4.08;;;;;;;6.60;54.55;98181.78;1790030;79;21093;-72
2021/11/30 01:05:54;;;;;;;6.53;4.33;;;;;;;6.53;54.90;98168.88;1783276;79;21089;-72
2021/11/30 01:08:20;;;;;;;7.53;4.72;;;;;;;6.51;55.17;98202.06;1791947;80;21118;-72
2021/11/30 01:10:48;;;;;;;7.25;4.25;;;;;;;6.46;55.42;98194.98;1782158;78;21066;-71
2021/11/30 01:13:15;;;;;;;7.15;4.42;;;;;;;6.48;55.76;98191.52;1786966;78;21073;-71
2021/11/30 01:15:42;;;;;;;6.87;4.50;;;;;;;6.46;55.86;98204.27;1804256;77;21543;-71
2021/11/30 01:18:10;;;;;;;5.65;3.75;;;;;;;6.44;56.09;98179.89;1809195;78;21018;-72
2021/11/30 01:20:37;;;;;;;6.58;4.00;;;;;;;6.37;55.83;98199.34;1770639;78;21568;-70
2021/11/30 01:23:05;;;;;;;6.33;3.58;;;;;;;6.40;56.06;98188.71;1779330;79;21521;-74
2021/11/30 01:25:33;;;;;;;6.28;4.08;;;;;;;6.38;56.12;98178.92;1788845;80;21058;-74
2021/11/30 01:27:59;;;;;;;7.05;3.65;;;;;;;6.36;56.14;98187.17;1782831;79;21058;-73
2021/11/30 01:30:26;;;;;;;7.12;4.28;;;;;;;6.33;56.12;98151.41;1784199;79;21105;-73
2021/11/30 01:32:53;;;;;;;5.10;3.30;;;;;;;6.36;56.30;98182.41;1782575;79;21052;-71
2021/11/30 01:35:19;;;;;;;5.00;3.12;;;;;;;6.33;56.25;98168.64;1802123;78;21033;-72
2021/11/30 01:37:47;;;;;;;6.05;3.45;;;;;;;6.31;56.23;98191.21;1777449;79;21069;-71
2021/11/30 01:40:17;;;;;;;5.05;3.30;;;;;;;6.32;56.19;98169.73;1797273;79;21050;-72
2021/11/30 01:42:48;;;;;;;5.95;3.75;;;;;;;6.36;56.29;98198.32;1782305;78;21045;-73
2021/11/30 01:45:58;;;;;;;6.10;4.10;;;;;;;6.36;56.09;98191.16;1787560;79;21145;-72
2021/11/30 01:50:27;;;;;;;6.40;3.77;;;;;;;6.30;56.42;98197.05;1783798;79;21613;-72
2021/11/30 01:52:53;;;;;;;4.35;2.85;;;;;;;6.31;56.79;98188.56;1786606;79;20996;-70
2021/11/30 01:55:20;;;;;;;5.85;4.03;;;;;;;6.23;57.15;98203.25;1767001;80;21659;-71
2021/11/30 01:57:49;;;;;;;5.42;3.90;;;;;;;6.23;57.26;98209.87;1786560;79;21095;-70
2021/11/30 02:00:18;;;;;;;7.05;4.17;;;;;;;6.23;57.47;98238.25;1802263;78;21071;-70
2021/11/30 02:02:45;;;;;;;6.70;4.45;;;;;;;6.20;57.63;98203.04;1788581;79;21035;-71
2021/11/30 02:05:13;;;;;;;7.47;4.75;;;;;;;6.13;58.60;98208.69;1770537;79;21029;-72
2021/11/30 02:07:40;;;;;;;5.67;4.05;;;;;;;6.09;59.38;98207.69;1784321;79;21587;-71
2021/11/30 02:10:09;;;;;;;6.25;4.08;;;;;;;6.01;59.41;98214.39;1773742;79;21835;-71
2021/11/30 02:12:38;;;;;;;7.97;4.35;;;;;;;5.95;59.80;98203.59;1778271;79;22149;-70
2021/11/30 02:15:07;;;;;;;6.60;4.50;;;;;;;5.93;59.88;98207.63;1797477;79;21011;-71
2021/11/30 02:17:35;;;;;;;6.65;4.50;;;;;;;5.94;59.97;98213.95;1775702;79;21130;-71
2021/11/30 02:20:05;;;;;;;8.78;4.30;;;;;;;5.91;60.04;98217.68;1796537;79;21069;-71
2021/11/30 02:22:33;;;;;;;9.70;4.42;;;;;;;5.92;59.94;98202.03;1781977;79;21956;-69
2021/11/30 02:24:59;;;;;;;6.70;4.67;;;;;;;5.85;60.03;98232.84;1769391;79;21078;-71
2021/11/30 02:27:26;;;;;;;7.35;4.60;;;;;;;5.88;60.08;98226.44;1767677;79;21110;-72
2021/11/30 02:29:53;;;;;;;6.53;4.53;;;;;;;5.82;60.18;98210.37;1790927;79;21062;-72
2021/11/30 02:32:22;;;;;;;6.60;4.20;;;;;;;5.83;60.31;98213.27;1771635;78;21015;-71
2021/11/30 02:34:49;;;;;;;5.75;3.95;;;;;;;5.87;60.15;98214.27;1773890;79;21568;-71
2021/11/30 02:37:23;;;;;;;6.65;4.40;;;;;;;5.91;59.88;98169.45;1777491;78;21522;-70
2021/11/30 02:39:46;;;;;;;6.50;4.10;;;;;;;5.90;59.81;98226.17;1782038;79;21071;-70
2021/11/30 02:42:14;;;;;;;7.25;4.25;;;;;;;5.89;59.52;98210.03;1767751;80;21054;-69
2021/11/30 02:44:42;;;;;;;6.90;4.65;;;;;;;5.95;59.39;98208.91;1790552;79;21053;-69
2021/11/30 02:47:11;;;;;;;6.47;4.03;;;;;;;6.02;59.39;98217.83;1787806;79;21424;-72
2021/11/30 02:49:41;;;;;;;6.70;4.22;;;;;;;6.03;59.26;98215.45;1784333;79;21051;-69
2021/11/30 02:52:13;;;;;;;6.95;4.53;;;;;;;6.03;59.24;98222.86;1817310;78;21014;-69
2021/11/30 02:54:43;;;;;;;5.95;4.08;;;;;;;6.06;59.11;98222.83;1799800;78;21071;-69
2021/11/30 02:57:13;;;;;;;5.60;3.45;;;;;;;6.04;58.94;98221.78;1776327;79;20997;-69
2021/11/30 02:59:47;;;;;;;6.55;4.40;;;;;;;6.08;59.01;98224.11;1772624;79;21143;-69
2021/11/30 03:02:26;;;;;;;6.95;4.20;;;;;;;6.03;58.79;98225.51;1783056;79;20951;-70
2021/11/30 03:05:00;;;;;;;6.08;4.20;;;;;;;6.06;58.48;98253.31;1789083;79;20946;-69
2021/11/30 03:07:35;;;;;;;6.42;4.70;;;;;;;6.05;58.50;98233.95;1786670;79;21593;-69
2021/11/30 03:10:00;;;;;;;6.12;4.25;;;;;;;6.08;58.58;98263.86;1790203;78;20948;-70
2021/11/30 03:12:26;;;;;;;6.78;4.33;;;;;;;6.14;58.67;98244.72;1769403;80;21512;-70
2021/11/30 03:14:54;;;;;;;5.53;4.10;;;;;;;6.09;58.71;98223.59;1791663;78;21455;-69
2021/11/30 03:17:21;;;;;;;5.78;4.40;;;;;;;6.08;58.70;98233.92;1769303;80;21035;-70
2021/11/30 03:19:48;;;;;;;6.28;3.80;;;;;;;6.00;58.87;98239.33;1769495;81;20994;-69
2021/11/30 03:22:14;;;;;;;5.70;4.00;;;;;;;5.91;59.21;98230.92;1769054;80;21019;-70
2021/11/30 03:24:41;;;;;;;6.65;4.30;;;;;;;6.01;59.05;98230.83;1782045;78;21107;-69
2021/11/30 03:27:08;;;;;;;6.25;4.62;;;;;;;5.93;59.29;98239.42;1800868;79;21143;-69
2021/11/30 03:29:35;;;;;;;6.45;4.45;;;;;;;5.92;59.36;98239.12;1801337;79;21082;-69
2021/11/30 03:34:30;;;;;;;5.95;4.30;;;;;;;5.91;59.39;98237.01;1801405;79;21498;-70
2021/11/30 03:36:58;;;;;;;6.62;4.08;;;;;;;5.94;58.63;98261.64;1800963;79;21990;-70
2021/11/30 03:39:27;;;;;;;5.87;4.30;;;;;;;5.97;58.28;98246.52;1800935;79;20975;-70
2021/11/30 03:41:56;;;;;;;6.12;4.17;;;;;;;6.01;57.99;98271.91;1800986;79;21037;-70
2021/11/30 03:44:23;;;;;;;6.35;4.50;;;;;;;6.01;57.71;98262.09;1801141;79;21003;-69
2021/11/30 03:46:51;;;;;;;6.45;4.35;;;;;;;6.01;58.05;98262.09;1800984;79;20995;-69
2021/11/30 03:49:19;;;;;;;6.60;4.53;;;;;;;5.98;57.79;98253.38;1800986;79;20968;-69
2021/11/30 03:51:47;;;;;;;6.97;4.83;;;;;;;5.97;57.54;98246.52;1800951;79;21051;-70
2021/11/30 03:54:14;;;;;;;6.17;4.25;;;;;;;6.11;57.60;98277.08;1801174;79;21011;-69
2021/11/30 03:56:43;;;;;;;5.70;3.72;;;;;;;6.05;56.90;98271.05;1780677;78;21113;-69
2021/11/30 03:59:11;;;;;;;7.37;4.55;;;;;;;6.09;56.46;98254.85;1769437;80;20939;-70
2021/11/30 04:01:39;;;;;;;5.87;3.85;;;;;;;6.21;56.15;98272.98;1769414;80;21143;-69
2021/11/30 04:04:12;;;;;;;6.28;4.03;;;;;;;6.17;55.72;98295.05;1769043;80;21042;-71
2021/11/30 04:06:37;;;;;;;6.60;4.50;;;;;;;6.16;55.58;98298.78;1769456;80;21011;-72
2021/11/30 04:09:05;;;;;;;5.87;4.50;;;;;;;6.16;55.43;98294.27;1769296;80;21062;-73
2021/11/30 04:11:33;;;;;;;6.87;4.80;;;;;;;6.22;55.39;98310.88;1740749;79;21022;-73
2021/11/30 04:14:01;;;;;;;6.95;4.33;;;;;;;6.26;55.43;98307.40;1769385;78;21596;-70
2021/11/30 04:16:29;;;;;;;6.90;4.03;;;;;;;6.21;55.38;98318.59;1775349;79;20979;-69
2021/11/30 04:18:56;;;;;;;6.85;4.42;;;;;;;6.20;54.89;98298.46;1769225;80;21581;-69
2021/11/30 04:21:23;;;;;;;7.30;4.50;;;;;;;6.20;55.07;98308.52;1769535;80;21111;-69
2021/11/30 04:23:50;;;;;;;7.00;4.40;;;;;;;6.18;54.81;98308.55;1781651;78;21533;-69
2021/11/30 04:26:18;;;;;;;6.05;3.77;;;;;;;6.22;54.87;98309.05;1770407;78;21164;-68
2021/11/30 04:28:45;;;;;;;7.50;5.10;;;;;;;6.18;54.67;98329.21;1769307;80;21046;-69
2021/11/30 04:31:12;;;;;;;6.67;4.65;;;;;;;6.19;54.44;98334.79;1770203;78;21525;-69
2021/11/30 04:33:40;;;;;;;5.90;3.92;;;;;;;6.23;54.10;98316.45;1769142;80;21014;-70
2021/11/30 04:36:07;;;;;;;5.65;4.33;;;;;;;6.27;54.10;98318.24;1771255;78;21171;-70
2021/11/30 04:38:35;;;;;;;6.67;4.65;;;;;;;6.29;54.19;98335.99;1769184;80;21116;-70
2021/11/30 04:41:02;;;;;;;6.40;4.42;;;;;;;6.26;54.10;98327.82;1769521;80;21038;-70
2021/11/30 04:43:38;;;;;;;6.30;4.33;;;;;;;6.28;53.57;98350.30;1769223;80;21035;-70
2021/11/30 04:46:00;;;;;;;7.17;4.47;;;;;;;6.23;53.57;98362.30;1767296;80;20936;-70
2021/11/30 04:48:27;;;;;;;5.40;3.60;;;;;;;6.25;53.72;98365.47;1769362;80;21476;-70
2021/11/30 04:50:56;;;;;;;6.55;4.15;;;;;;;6.21;53.65;98346.42;1769607;80;21063;-70
2021/11/30 04:53:25;;;;;;;7.05;4.22;;;;;;;6.19;53.58;98359.97;1769181;80;21529;-70
2021/11/30 04:55:52;;;;;;;6.70;4.33;;;;;;;6.27;53.54;98375.78;1769640;80;20951;-70
2021/11/30 04:58:19;;;;;;;6.40;4.22;;;;;;;6.17;53.42;98352.82;1769536;80;21192;-71
2021/11/30 05:00:47;;;;;;;6.83;4.05;;;;;;;6.21;53.32;98346.42;1769528;80;21231;-70
2021/11/30 05:03:14;;;;;;;5.65;3.67;;;;;;;6.23;52.99;98376.09;1769619;80;21582;-70
2021/11/30 05:05:41;;;;;;;5.47;3.85;;;;;;;6.25;53.07;98380.56;1769434;80;20995;-70
2021/11/30 05:08:08;;;;;;;5.10;3.58;;;;;;;6.27;52.72;98381.87;1769523;80;21121;-70
2021/11/30 05:10:35;;;;;;;6.75;3.98;;;;;;;6.20;52.83;98381.42;1769459;80;21066;-69
2021/11/30 05:13:02;;;;;;;6.12;4.05;;;;;;;6.24;52.72;98390.38;1769362;80;21089;-69
2021/11/30 05:15:29;;;;;;;6.53;3.72;;;;;;;6.23;52.39;98369.47;1769426;80;21151;-69
2021/11/30 05:17:56;;;;;;;5.45;3.83;;;;;;;6.30;52.13;98407.03;1769081;80;21019;-69
2021/11/30 05:20:22;;;;;;;4.80;2.60;;;;;;;6.21;52.38;98396.25;1769394;80;21039;-71
2021/11/30 05:22:52;;;;;;;6.30;3.70;;;;;;;6.16;52.23;98393.66;1794401;78;21031;-70
2021/11/30 05:25:24;;;;;;;7.40;4.00;;;;;;;6.24;52.19;98408.94;1801102;79;21039;-70
2021/11/30 05:27:51;;;;;;;7.47;4.00;;;;;;;6.26;52.26;98400.18;1800897;79;21432;-71
2021/11/30 05:30:20;;;;;;;6.00;4.12;;;;;;;6.28;52.05;98396.69;1800884;79;20970;-70
2021/11/30 05:32:47;;;;;;;5.47;3.45;;;;;;;6.34;52.02;98398.23;1800861;79;21042;-70
2021/11/30 05:35:13;;;;;;;5.25;3.52;;;;;;;6.28;51.63;98431.16;1800754;79;21046;-70
2021/11/30 05:37:41;;;;;;;6.70;3.62;;;;;;;6.31;51.51;98419.21;1800803;79;20984;-69
2021/11/30 05:40:10;;;;;;;6.12;3.72;;;;;;;6.30;51.48;98437.52;1801053;79;21374;-70
2021/11/30 05:42:38;;;;;;;5.33;3.45;;;;;;;6.29;51.62;98431.44;1800764;79;21553;-70
2021/11/30 05:45:06;;;;;;;5.50;3.37;;;;;;;6.38;51.50;98433.45;1801386;79;21007;-68
2021/11/30 05:47:34;;;;;;;5.10;2.90;;;;;;;6.27;51.46;98450.80;1800774;79;20991;-69
2021/11/30 05:50:02;;;;;;;5.78;3.77;;;;;;;6.33;51.15;98444.92;1800984;79;20979;-69
2021/11/30 05:52:28;;;;;;;4.83;3.40;;;;;;;6.36;51.33;98470.88;1800853;79;21560;-70
2021/11/30 05:54:55;;;;;;;5.28;3.33;;;;;;;6.30;51.48;98443.61;1801057;79;21097;-70
2021/11/30 05:57:23;;;;;;;5.40;3.37;;;;;;;6.34;51.40;98464.51;1800837;79;21038;-70
2021/11/30 05:59:51;;;;;;;5.90;3.40;;;;;;;6.33;51.24;98469.56;1801298;79;20948;-69
2021/11/30 06:02:19;;;;;;;4.70;2.67;;;;;;;6.34;51.23;98471.67;1800849;79;20999;-68
2021/11/30 06:04:46;;;;;;;4.58;2.90;;;;;;;6.26;50.79;98483.69;1801333;79;21107;-70
2021/11/30 06:07:13;;;;;;;7.05;3.12;;;;;;;6.32;50.96;98491.86;1800827;79;20995;-70
2021/11/30 06:09:40;;;;;;;5.20;2.77;;;;;;;6.33;51.11;98488.66;1801249;79;20979;-70
2021/11/30 06:12:07;;;;;;;4.87;2.62;;;;;;;6.31;50.84;98500.86;1800836;79;21047;-70
2021/11/30 06:14:34;;;;;;;4.90;3.00;;;;;;;6.34;50.93;98472.46;1801198;79;20971;-70
2021/11/30 06:17:02;;;;;;;5.17;2.60;;;;;;;6.33;51.14;98508.02;1800817;79;21135;-69
2021/11/30 06:19:30;;;;;;;4.70;3.08;;;;;;;6.27;51.27;98530.33;1800758;78;20947;-69
2021/11/30 06:21:57;;;;;;;3.90;2.70;;;;;;;6.34;51.27;98502.95;1769232;80;21053;-69
2021/11/30 06:24:24;;;;;;;4.70;3.12;;;;;;;6.31;51.22;98523.39;1769278;80;21027;-69
2021/11/30 06:26:51;;;;;;;4.50;2.75;;;;;;;6.33;51.38;98505.91;1769266;80;21051;-70
2021/11/30 06:29:18;;;;;;;4.65;2.85;;;;;;;6.29;51.35;98514.16;1791187;78;21745;-69
2021/11/30 06:31:45;;;;;;;4.37;2.72;;;;;;;6.29;50.88;98552.60;1800698;79;21030;-69
2021/11/30 06:34:13;;;;;;;4.50;3.27;;;;;;;6.30;51.17;98536.95;1799292;78;21502;-69
2021/11/30 06:36:40;;;;;;;5.30;2.72;;;;;;;6.30;51.13;98509.11;1801189;79;20952;-70
2021/11/30 06:39:06;;;;;;;4.60;2.60;;;;;;;6.26;51.26;98522.13;1799970;78;21010;-69
2021/11/30 06:41:33;;;;;;;4.92;2.80;;;;;;;6.22;50.77;98539.67;1772540;79;21873;-70
2021/11/30 06:44:00;;;;;;;4.78;2.83;;;;;;;6.20;50.64;98555.05;1769232;80;20955;-70
2021/11/30 06:46:27;;;;;;;7.42;3.00;;;;;;;6.24;50.87;98535.40;1769265;80;20968;-70
2021/11/30 06:48:53;;;;;;;5.17;2.08;;;;;;;6.29;51.11;98540.67;1769354;80;20975;-69
2021/11/30 06:51:21;;;;;;;4.75;2.22;;;;;;;6.23;50.35;98538.59;1770281;78;21418;-70
2021/11/30 06:53:48;;;;;;;5.45;2.50;;;;;;;6.27;50.56;98568.77;1769304;80;21115;-69
2021/11/30 06:56:16;;;;;;;6.40;3.80;;;;;;;6.28;50.63;98561.61;1769349;80;20983;-70
2021/11/30 06:58:43;;;;;;;4.60;2.80;;;;;;;6.23;50.74;98551.84;1769329;80;21566;-70
2021/11/30 07:01:12;;;;;;;5.55;2.80;;;;;;;6.21;50.21;98563.25;1769192;80;21573;-69
2021/11/30 07:03:47;;;;;;;4.42;2.50;;;;;;;6.12;50.21;98566.25;1769167;80;21387;-68
2021/11/30 07:06:22;;;;;;;3.83;2.40;;;;;;;6.14;49.70;98605.19;1768652;80;21786;-71
2021/11/30 07:11:24;;;;;;;3.10;1.92;;;;;;;6.11;48.26;98548.20;1769419;80;21014;-69
2021/11/30 07:13:46;;;;;;;3.42;1.67;;;;;;;6.14;48.27;98569.94;1768764;80;21907;-69
2021/11/30 07:16:14;;;;;;;2.87;1.50;;;;;;;6.07;48.56;98566.28;1769457;80;21096;-70
2021/11/30 07:18:41;;;;;;;2.37;1.32;;;;;;;6.04;48.08;98568.16;1776845;78;21502;-69
2021/11/30 07:21:08;;;;;;;3.12;1.57;;;;;;;6.03;48.15;98546.70;1800920;79;21376;-70
2021/11/30 07:23:35;;;;;;;2.50;1.30;;;;;;;6.10;47.88;98577.11;1800872;79;20983;-69
2021/11/30 07:26:02;;;;;;;2.25;1.37;;;;;;;6.13;47.96;98572.34;1774061;78;21035;-69
2021/11/30 07:28:31;;;;;;;2.62;1.40;;;;;;;6.18;47.68;98579.70;1799735;79;21027;-68
2021/11/30 07:31:04;;;;;;;3.22;1.50;;;;;;;6.20;47.65;98576.25;1787397;78;21113;-70
2021/11/30 07:33:32;;;;;;;2.17;1.15;;;;;;;6.18;47.41;98577.59;1769258;80;21030;-70
2021/11/30 07:36:01;;;;;;;2.47;1.35;;;;;;;6.20;47.59;98581.55;1769322;80;21090;-70
2021/11/30 07:38:28;;;;;;;7.33;1.50;;;;;;;6.16;46.84;98565.16;1769208;80;20972;-70
2021/11/30 07:40:55;;;;;;;2.17;1.20;;;;;;;6.20;47.20;98608.60;1769772;80;21573;-69
2021/11/30 07:43:22;;;;;;;4.72;1.42;;;;;;;6.21;47.34;98579.69;1769196;80;21258;-70
2021/11/30 07:45:49;;;;;;;2.02;1.20;;;;;;;6.23;46.95;98574.38;1770917;78;21038;-70
2021/11/30 07:48:16;;;;;;;2.42;1.37;;;;;;;6.30;47.20;98570.08;1769772;78;20971;-70
2021/11/30 07:50:45;;;;;;;3.10;1.45;;;;;;;6.30;47.18;98579.36;1770068;79;21011;-71
2021/11/30 07:53:11;;;;;;;3.83;1.50;;;;;;;6.30;46.78;98571.41;1769365;80;21051;-69
2021/11/30 07:55:40;;;;;;;4.05;1.47;;;;;;;6.26;46.99;98583.64;1769295;80;21139;-72
2021/11/30 07:58:06;;;;;;;3.33;1.80;;;;;;;6.34;47.24;98584.36;1772672;78;21047;-69
2021/11/30 08:00:33;;;;;;;3.00;1.80;;;;;;;6.35;47.55;98578.02;1773029;79;21101;-70
2021/11/30 08:03:00;;;;;;;4.78;1.72;;;;;;;6.37;47.79;98598.94;1769258;80;21113;-71
2021/11/30 08:05:26;;;;;;;3.20;1.70;;;;;;;6.40;47.60;98610.31;1770433;78;20979;-69
2021/11/30 08:07:53;;;;;;;3.60;1.77;;;;;;;6.44;47.70;98579.52;1785189;80;21148;-69
2021/11/30 08:10:22;;;;;;;3.40;2.10;;;;;;;6.45;47.84;98615.05;1785216;80;20935;-69
2021/11/30 08:12:49;;;;;;;3.55;2.02;;;;;;;6.43;47.96;98588.55;1796157;78;21447;-70
2021/11/30 08:15:16;;;;;;;3.72;2.20;;;;;;;6.43;47.82;98587.22;1773415;78;20975;-69
2021/11/30 08:17:44;;;;;;;3.70;2.00;;;;;;;6.44;48.17;98594.89;1782704;78;20984;-70
2021/11/30 08:20:11;;;;;;;3.22;2.02;;;;;;;6.46;48.06;98598.60;1796951;78;21447;-69
2021/11/30 08:22:38;;;;;;;3.45;2.05;;;;;;;6.44;48.33;98587.47;1799995;78;21006;-70
2021/11/30 08:25:05;;;;;;;3.95;2.52;;;;;;;6.47;48.46;98580.29;1801099;79;21011;-70
2021/11/30 08:27:32;;;;;;;4.05;2.47;;;;;;;6.43;48.27;98587.22;1800761;79;21110;-69
2021/11/30 08:29:59;;;;;;;3.72;2.30;;;;;;;6.46;48.45;98594.62;1800754;79;21022;-69
2021/11/30 08:32:27;;;;;;;4.67;2.55;;;;;;;6.49;48.59;98591.42;1800680;79;21050;-70
2021/11/30 08:34:55;;;;;;;4.50;3.10;;;;;;;6.52;48.62;98602.80;1801944;78;21039;-70
2021/11/30 08:37:21;;;;;;;5.33;3.08;;;;;;;6.50;48.49;98585.03;1791663;78;21047;-72
2021/11/30 08:39:49;;;;;;;4.55;2.67;;;;;;;6.54;48.19;98600.64;1769453;81;21074;-69
2021/11/30 08:42:17;;;;;;;5.75;3.72;;;;;;;6.54;47.83;98593.48;1769470;81;21055;-70
2021/11/30 08:44:44;;;;;;;4.72;3.00;;;;;;;6.55;47.96;98604.91;1771442;78;21154;-70
2021/11/30 08:47:13;;;;;;;5.17;3.33;;;;;;;6.61;48.16;98597.13;1798462;78;20994;-69
2021/11/30 08:49:40;;;;;;;4.85;3.10;;;;;;;6.61;47.90;98591.83;1801112;79;21058;-71
2021/11/30 08:52:12;;;;;;;4.65;2.83;;;;;;;6.66;48.15;98577.20;1795312;78;21095;-72
2021/11/30 08:54:39;;;;;;;5.53;3.42;;;;;;;6.62;47.90;98591.31;1769707;80;21521;-70
2021/11/30 08:57:06;;;;;;;6.10;3.30;;;;;;;6.64;47.65;98564.74;1769235;80;21587;-71
2021/11/30 08:59:32;;;;;;;4.85;3.10;;;;;;;6.59;47.69;98580.72;1769201;80;21348;-70
2021/11/30 09:01:59;;;;;;;5.83;3.67;;;;;;;6.65;47.89;98571.66;1769362;80;21082;-70
2021/11/30 09:04:26;;;;;;;7.10;3.22;;;;;;;6.67;48.00;98579.31;1769566;80;21093;-71
2021/11/30 09:06:53;;;;;;;4.95;3.37;;;;;;;6.66;48.02;98567.13;1783059;78;21002;-70
2021/11/30 09:09:21;;;;;;;6.78;3.65;;;;;;;6.66;47.60;98551.22;1782742;78;21147;-71
2021/11/30 09:11:48;;;;;;;6.58;3.00;;;;;;;6.66;47.88;98561.28;1787217;78;21046;-71
2021/11/30 09:14:19;;;;;;;6.92;3.67;;;;;;;6.65;47.59;98546.45;1769256;78;21062;-71
2021/11/30 09:16:43;;;;;;;5.47;3.58;;;;;;;6.65;47.72;98559.72;1773494;78;21514;-71
2021/11/30 09:19:10;;;;;;;5.10;3.37;;;;;;;6.62;47.95;98540.38;1769231;80;21071;-70
2021/11/30 09:21:37;;;;;;;5.35;3.40;;;;;;;6.61;47.82;98556.02;1771168;78;21881;-71
2021/11/30 09:24:04;;;;;;;5.83;3.85;;;;;;;6.61;47.96;98550.71;1769275;80;21098;-72
2021/11/30 09:26:32;;;;;;;6.85;3.90;;;;;;;6.62;47.88;98546.22;1769314;80;20895;-70
2021/11/30 09:28:59;;;;;;;7.00;3.62;;;;;;;6.61;47.91;98558.67;1767415;80;21010;-70
2021/11/30 09:31:26;;;;;;;6.97;4.10;;;;;;;6.56;47.91;98573.32;1785021;78;21073;-71
2021/11/30 09:33:52;;;;;;;6.37;4.37;;;;;;;6.53;47.94;98556.09;1779943;78;21856;-71
2021/11/30 09:36:19;;;;;;;7.62;4.12;;;;;;;6.55;47.98;98559.27;1785902;78;20992;-71
2021/11/30 09:38:46;;;;;;;7.95;4.35;;;;;;;6.52;48.06;98549.76;1778727;78;20984;-69
2021/11/30 09:41:13;;;;;;;6.35;3.62;;;;;;;6.53;48.34;98548.68;1771120;79;21002;-72
2021/11/30 09:43:39;;;;;;;6.60;3.70;;;;;;;6.53;48.63;98566.70;1799008;78;21576;-71
2021/11/30 09:46:08;;;;;;;4.80;3.10;;;;;;;6.49;48.38;98570.20;1780366;78;21123;-71
2021/11/30 09:48:36;;;;;;;5.87;3.60;;;;;;;6.47;47.43;98504.70;1776430;78;21137;-71
2021/11/30 09:51:04;;;;;;;12.18;2.62;;;;;;;6.52;47.26;98583.70;1797354;78;21085;-71
2021/11/30 09:53:31;;;;;;;4.67;2.58;;;;;;;6.55;46.64;98520.03;1781938;78;20968;-70
2021/11/30 09:56:00;;;;;;;4.58;2.67;;;;;;;6.51;46.64;98541.52;1784002;78;20990;-71
2021/11/30 09:58:27;;;;;;;3.55;2.20;;;;;;;6.46;46.14;98574.73;1788478;79;21143;-70
2021/11/30 10:00:59;;;;;;;4.75;2.72;;;;;;;6.49;46.78;98552.97;1799907;78;21018;-70
2021/11/30 10:03:26;;;;;;;3.92;2.12;;;;;;;6.46;46.38;98550.33;1777973;79;20986;-70
2021/11/30 10:05:54;;;;;;;4.42;2.27;;;;;;;6.45;46.02;98542.64;1787482;78;20971;-70
2021/11/30 10:08:32;;;;;;;5.00;2.67;;;;;;;6.42;46.32;98539.24;1786911;79;20967;-70
2021/11/30 10:11:00;;;;;;;4.80;3.00;;;;;;;6.45;46.79;98576.60;1784090;79;21504;-69
2021/11/30 10:13:27;;;;;;;4.30;2.37;;;;;;;6.40;47.10;98537.39;1768833;80;20991;-68
2021/11/30 10:16:00;;;;;;;4.30;2.70;;;;;;;6.41;46.38;98575.55;1769982;78;20979;-70
2021/11/30 10:18:39;;;;;;;3.58;2.42;;;;;;;6.36;46.31;98577.47;1769037;80;21031;-69
2021/11/30 10:21:20;;;;;;;3.95;2.37;;;;;;;6.40;46.29;98541.38;1790172;78;21139;-69
2021/11/30 10:23:56;;;;;;;4.47;2.37;;;;;;;6.41;46.35;98549.58;1782739;78;21807;-70
2021/11/30 10:26:25;;;;;;;3.80;2.17;;;;;;;6.48;46.31;98569.42;1768099;81;21636;-69
2021/11/30 10:28:55;;;;;;;5.03;2.47;;;;;;;6.51;46.18;98568.84;1767118;81;21684;-72
2021/11/30 10:31:27;;;;;;;4.78;2.30;;;;;;;6.54;46.37;98566.16;1768179;81;21034;-71
2021/11/30 10:33:52;;;;;;;3.65;2.05;;;;;;;6.53;45.92;98561.40;1768760;81;21120;-71
2021/11/30 10:36:19;;;;;;;3.45;2.20;;;;;;;6.55;46.08;98559.81;1767645;81;21154;-70
2021/11/30 10:38:46;;;;;;;5.15;2.75;;;;;;;6.56;45.93;98574.65;1768922;79;21030;-70
2021/11/30 10:41:21;;;;;;;4.00;2.42;;;;;;;6.55;46.20;98571.20;1769183;78;21030;-69
2021/11/30 10:43:57;;;;;;;4.95;2.70;;;;;;;6.51;46.34;98564.07;1767944;80;21077;-70
2021/11/30 10:46:31;;;;;;;4.50;3.00;;;;;;;6.54;46.75;98553.69;1768270;78;21544;-69
2021/11/30 10:48:58;;;;;;;4.70;2.90;;;;;;;6.47;47.39;98578.96;1769576;78;21781;-69
2021/11/30 10:51:30;;;;;;;5.15;3.10;;;;;;;6.36;47.50;98589.41;1767803;80;21047;-70
2021/11/30 10:54:00;;;;;;;5.45;3.22;;;;;;;6.28;47.95;98554.44;1768130;80;21066;-70
2021/11/30 10:56:27;;;;;;;4.78;2.83;;;;;;;6.32;48.39;98560.80;1767761;80;21054;-71
2021/11/30 10:58:55;;;;;;;4.92;2.77;;;;;;;6.27;48.45;98543.59;1793561;78;21079;-69
2021/11/30 11:01:25;;;;;;;4.83;2.80;;;;;;;6.28;48.71;98568.23;1791405;79;21187;-69
2021/11/30 11:04:07;;;;;;;4.45;3.08;;;;;;;6.22;48.94;98567.50;1796074;78;21042;-69
2021/11/30 11:06:37;;;;;;;5.30;3.02;;;;;;;6.30;49.13;98569.55;1792234;78;21525;-69
2021/11/30 11:09:10;;;;;;;4.72;2.90;;;;;;;6.24;49.23;98568.00;1797758;78;21066;-69
2021/11/30 11:11:43;;;;;;;5.37;3.17;;;;;;;6.28;49.34;98562.94;1796800;78;21037;-71
2021/11/30 11:14:23;;;;;;;5.62;3.80;;;;;;;6.28;49.08;98562.94;1793389;78;21314;-71
2021/11/30 11:16:52;;;;;;;5.33;2.72;;;;;;;6.27;48.90;98580.70;1799378;79;21035;-70
2021/11/30 11:19:41;;;;;;;6.75;2.80;;;;;;;6.24;48.41;98581.80;1799630;79;21069;-70
2021/11/30 11:22:23;;;;;;;5.50;2.85;;;;;;;6.28;48.39;98570.34;1798582;78;21079;-69
2021/11/30 11:24:51;;;;;;;5.47;2.40;;;;;;;6.28;47.73;98566.38;1793719;78;21208;-69
2021/11/30 11:27:37;;;;;;;3.92;2.40;;;;;;;6.33;47.22;98592.86;1755577;79;21130;-69
2021/11/30 11:30:05;;;;;;;5.55;2.65;;;;;;;6.38;47.27;98587.25;1791573;78;21393;-69
2021/11/30 11:32:32;;;;;;;4.08;2.50;;;;;;;6.33;46.91;98600.81;1796274;78;21046;-69
2021/11/30 11:34:59;;;;;;;4.62;2.58;;;;;;;6.39;47.29;98600.78;1780860;78;21085;-69
2021/11/30 11:37:26;;;;;;;4.10;2.27;;;;;;;6.44;47.30;98610.80;1793837;78;21089;-70
2021/11/30 11:39:52;;;;;;;5.70;2.72;;;;;;;6.42;46.87;98593.06;1768872;78;21510;-69
2021/11/30 11:42:21;;;;;;;3.62;2.42;;;;;;;6.43;47.35;98603.92;1784601;78;21054;-69
2021/11/30 11:44:48;;;;;;;5.20;2.60;;;;;;;6.36;47.22;98608.75;1792571;78;20987;-68
2021/11/30 11:47:18;;;;;;;6.00;2.85;;;;;;;6.41;47.57;98593.33;1773937;78;21078;-69
2021/11/30 11:49:48;;;;;;;4.10;2.65;;;;;;;6.39;47.61;98594.16;1774728;78;21035;-69
2021/11/30 11:52:31;;;;;;;5.70;3.10;;;;;;;6.41;47.83;98602.61;1785604;79;21109;-68
2021/11/30 11:55:17;;;;;;;4.65;2.40;;;;;;;6.40;47.50;98602.36;1768753;80;21078;-70
2021/11/30 11:58:02;;;;;;;4.83;2.77;;;;;;;6.31;47.46;98612.22;1757504;80;20991;-70